createdAt,value
2023-03-16T00:03:12.205Z,62.59
2023-03-16T00:08:14.920Z,62.31
2023-03-16T00:13:18.035Z,62.36
2023-03-16T00:18:19.637Z,62.89
2023-03-16T00:23:27.108Z,63.42
2023-03-16T00:28:35.111Z,63.62
2023-03-16T00:33:36.535Z,64.31
2023-03-16T00:38:45.361Z,64.20
2023-03-16T00:43:48.710Z,64.84
2023-03-16T00:48:51.412Z,65.62
2023-03-16T00:53:52.828Z,66.24
2023-03-16T00:58:57.615Z,66.96
2023-03-16T01:04:02.488Z,67.11
2023-03-16T01:09:05.526Z,67.75
2023-03-16T01:14:06.970Z,67.45
2023-03-16T01:19:08.581Z,67.70
2023-03-16T01:24:10.145Z,67.91
2023-03-16T01:29:12.489Z,67.88
2023-03-16T01:34:17.908Z,67.78
2023-03-16T01:39:19.361Z,67.68
2023-03-16T01:44:30.491Z,68.13
2023-03-16T01:49:36.553Z,68.45
2023-03-16T01:54:44.529Z,68.13
2023-03-16T02:00:10.327Z,68.62
2023-03-16T02:05:23.047Z,68.81
2023-03-16T02:10:27.490Z,68.82
2023-03-16T02:15:29.413Z,68.88
2023-03-16T02:20:50.543Z,68.96
2023-03-16T02:26:00.161Z,69.23
2023-03-16T02:31:02.270Z,69.45
2023-03-16T02:36:04.014Z,69.75
2023-03-16T02:41:15.180Z,70.22
2023-03-16T02:46:17.833Z,70.10
2023-03-16T02:51:19.224Z,70.21
2023-03-16T02:56:22.350Z,70.74
2023-03-16T03:01:24.117Z,70.94
2023-03-16T03:06:25.559Z,70.21
2023-03-16T03:11:27.013Z,70.07
2023-03-16T03:16:28.407Z,70.05
2023-03-16T03:21:29.860Z,70.16
2023-03-16T03:26:31.384Z,70.13
2023-03-16T03:31:32.883Z,70.04
2023-03-16T03:36:35.056Z,70.17
2023-03-16T03:41:36.441Z,70.29
2023-03-16T03:46:37.930Z,70.60
2023-03-16T03:51:41.042Z,70.66
2023-03-16T03:56:42.626Z,70.79
2023-03-16T04:01:44.530Z,70.88
2023-03-16T04:06:46.902Z,70.98
2023-03-16T04:11:48.267Z,70.86
2023-03-16T04:16:49.679Z,70.75
2023-03-16T04:21:51.681Z,70.87
2023-03-16T04:26:54.226Z,70.85
2023-03-16T04:31:55.641Z,70.82
2023-03-16T04:36:57.064Z,71.08
2023-03-16T04:41:58.460Z,70.73
2023-03-16T04:47:00.385Z,71.29
2023-03-16T04:52:02.165Z,71.43
2023-03-16T04:57:03.795Z,71.63
2023-03-16T05:02:05.162Z,71.65
2023-03-16T05:07:06.528Z,71.41
2023-03-16T05:12:08.389Z,71.50
2023-03-16T05:17:09.811Z,71.48
2023-03-16T05:22:11.298Z,71.89
2023-03-16T05:27:12.666Z,71.87
2023-03-16T05:32:14.040Z,71.65
2023-03-16T05:37:15.431Z,71.73
2023-03-16T05:42:16.821Z,71.72
2023-03-16T05:47:18.269Z,71.71
2023-03-16T05:52:19.695Z,71.85
2023-03-16T05:57:21.137Z,71.73
2023-03-16T06:02:22.589Z,71.90
2023-03-16T06:07:24.541Z,71.90
2023-03-16T06:12:25.968Z,72.33
2023-03-16T06:17:27.433Z,71.86
2023-03-16T06:22:30.214Z,71.60
2023-03-16T06:27:31.652Z,71.59
2023-03-16T06:32:33.079Z,71.79
2023-03-16T06:37:34.459Z,70.59
2023-03-16T06:42:35.778Z,70.31
2023-03-16T06:47:37.376Z,69.67
2023-03-16T06:52:39.112Z,69.63
2023-03-16T06:57:41.917Z,68.79
2023-03-16T07:02:43.795Z,68.20
2023-03-16T07:07:47.843Z,68.07
2023-03-16T07:12:50.246Z,66.95
2023-03-16T07:17:52.515Z,66.55
2023-03-16T07:22:53.918Z,66.58
2023-03-16T07:27:55.241Z,65.58
2023-03-16T07:32:57.207Z,65.88
2023-03-16T07:37:58.746Z,65.34
2023-03-16T07:43:00.100Z,64.13
2023-03-16T07:48:02.865Z,63.77
2023-03-16T07:53:05.275Z,63.17
2023-03-16T07:58:06.693Z,62.65
2023-03-16T08:03:08.292Z,62.28
2023-03-16T08:08:09.887Z,61.67
2023-03-16T08:13:11.333Z,59.84
2023-03-16T08:18:12.773Z,59.71
2023-03-16T08:23:15.537Z,59.68
2023-03-16T08:28:17.233Z,59.11
2023-03-16T08:33:23.183Z,58.51
2023-03-16T08:38:25.519Z,58.17
2023-03-16T08:43:27.104Z,57.25
2023-03-16T08:48:28.743Z,56.78
2023-03-16T08:53:30.438Z,56.12
2023-03-16T08:58:33.014Z,55.33
2023-03-16T09:03:35.326Z,54.49
2023-03-16T09:08:39.040Z,53.36
2023-03-16T09:13:41.716Z,53.35
2023-03-16T09:18:43.577Z,52.92
2023-03-16T09:23:45.382Z,50.98
2023-03-16T09:28:47.003Z,50.41
2023-03-16T09:33:48.459Z,48.91
2023-03-16T09:38:50.476Z,48.71
2023-03-16T09:44:19.984Z,46.36
2023-03-16T09:49:25.957Z,46.70
2023-03-16T09:54:33.316Z,46.23
2023-03-16T09:59:34.760Z,46.60
2023-03-16T10:04:50.463Z,44.99
2023-03-16T10:09:58.869Z,44.13
2023-03-16T10:15:23.597Z,43.07
2023-03-16T10:20:28.646Z,40.93
2023-03-16T10:25:43.435Z,38.29
2023-03-16T10:30:46.982Z,38.41
2023-03-16T10:35:59.785Z,39.53
2023-03-16T10:41:01.336Z,39.13
2023-03-16T10:46:02.886Z,39.33
2023-03-16T10:51:11.961Z,40.59
2023-03-16T10:56:20.602Z,36.87
2023-03-16T11:01:28.920Z,32.35
2023-03-16T11:06:33.275Z,29.75
2023-03-16T11:11:35.536Z,29.73
2023-03-16T11:16:46.519Z,28.78
2023-03-16T11:22:17.530Z,25.74
2023-03-16T11:27:30.300Z,23.51
2023-03-16T11:32:40.604Z,23.19
2023-03-16T11:38:10.919Z,21.72
2023-03-16T11:43:26.040Z,22.94
2023-03-16T11:48:36.806Z,23.55
2023-03-16T11:53:52.881Z,24.27
2023-03-16T11:59:18.869Z,24.69
2023-03-16T12:04:38.634Z,24.53
2023-03-16T12:09:59.230Z,26.14
2023-03-16T12:15:20.083Z,29.71
2023-03-16T12:20:26.625Z,31.38
2023-03-16T12:25:34.793Z,33.10
2023-03-16T12:30:39.305Z,33.69
2023-03-16T12:35:49.498Z,34.44
2023-03-16T12:41:00.874Z,33.78
2023-03-16T12:46:16.217Z,33.11
2023-03-16T12:51:17.610Z,33.70
2023-03-16T12:56:30.173Z,34.38
2023-03-16T13:01:41.405Z,28.96
2023-03-16T13:06:51.550Z,24.02
2023-03-16T13:11:53.179Z,26.57
2023-03-16T13:17:06.437Z,31.05
2023-03-16T13:22:30.321Z,32.61
2023-03-16T13:27:34.429Z,33.45
2023-03-16T13:32:36.587Z,33.05
2023-03-16T13:37:40.263Z,32.08
2023-03-16T13:42:47.789Z,29.75
2023-03-16T13:47:50.402Z,27.92
2023-03-16T13:53:04.124Z,27.47
2023-03-16T13:58:06.340Z,30.49
2023-03-16T14:03:17.658Z,31.97
2023-03-16T14:08:23.874Z,31.80
2023-03-16T14:13:27.987Z,33.44
2023-03-16T14:18:39.689Z,34.90
2023-03-16T14:23:44.756Z,36.67
2023-03-16T14:29:06.916Z,37.00
2023-03-16T14:34:35.484Z,38.25
2023-03-16T14:39:37.696Z,39.10
2023-03-16T14:44:39.133Z,39.42
2023-03-16T14:49:43.252Z,40.02
2023-03-16T14:54:44.756Z,40.63
2023-03-16T14:59:46.526Z,40.69
2023-03-16T15:04:48.691Z,40.88
2023-03-16T15:09:52.237Z,41.08
2023-03-16T15:15:12.204Z,40.82
2023-03-16T15:20:19.590Z,41.21
2023-03-16T15:25:40.516Z,41.22
2023-03-16T15:30:44.577Z,41.19
2023-03-16T15:35:48.051Z,41.72
2023-03-16T15:40:51.273Z,42.19
2023-03-16T15:45:54.280Z,42.56
2023-03-16T15:51:24.456Z,42.40
2023-03-16T15:56:31.490Z,42.95
2023-03-16T16:01:46.050Z,43.24
2023-03-16T16:06:49.319Z,43.13
2023-03-16T16:11:51.394Z,43.54
2023-03-16T16:16:54.268Z,43.75
2023-03-16T16:21:55.992Z,44.06
2023-03-16T16:26:57.404Z,44.19
2023-03-16T16:31:59.061Z,44.57
2023-03-16T16:37:00.548Z,44.85
2023-03-16T16:42:01.900Z,44.85
2023-03-16T16:47:03.794Z,45.19
2023-03-16T16:52:06.370Z,45.48
2023-03-16T16:57:15.773Z,46.29
2023-03-16T17:02:28.074Z,46.41
2023-03-16T17:07:29.546Z,46.85
2023-03-16T17:12:31.054Z,47.28
2023-03-16T17:17:32.859Z,47.54
2023-03-16T17:22:34.633Z,48.09
2023-03-16T17:27:36.317Z,48.55
2023-03-16T17:32:37.660Z,48.67
2023-03-16T17:37:39.072Z,48.83
2023-03-16T17:42:41.245Z,48.99
2023-03-16T17:47:42.665Z,49.69
2023-03-16T17:52:44.352Z,49.52
2023-03-16T17:57:48.470Z,49.81
2023-03-16T18:02:53.733Z,49.88
2023-03-16T18:07:58.479Z,49.88
2023-03-16T18:13:06.667Z,50.13
2023-03-16T18:18:13.732Z,50.03
2023-03-16T18:23:21.450Z,50.15
2023-03-16T18:28:23.257Z,50.39
2023-03-16T18:33:59.423Z,50.70
2023-03-16T18:39:03.956Z,51.50
2023-03-16T18:44:18.374Z,51.50
2023-03-16T18:49:30.321Z,50.33
2023-03-16T18:54:35.388Z,50.39
2023-03-16T18:59:36.865Z,50.06
2023-03-16T19:04:38.480Z,50.43
2023-03-16T19:09:39.798Z,50.26
2023-03-16T19:14:41.192Z,49.94
2023-03-16T19:19:42.937Z,49.90
2023-03-16T19:24:55.790Z,50.22
2023-03-16T19:29:57.227Z,50.16
2023-03-16T19:34:59.295Z,50.33
2023-03-16T19:40:01.731Z,50.03
2023-03-16T19:45:04.531Z,50.28
2023-03-16T19:50:18.558Z,50.53
2023-03-16T19:55:23.003Z,50.74
2023-03-16T20:00:26.072Z,50.92
2023-03-16T20:05:30.144Z,50.89
2023-03-16T20:10:32.748Z,50.96
2023-03-16T20:15:35.615Z,50.89
2023-03-16T20:20:37.479Z,50.92
2023-03-16T20:25:38.787Z,51.31
2023-03-16T20:30:40.150Z,51.13
2023-03-16T20:35:41.759Z,51.69
2023-03-16T20:40:44.955Z,51.56
2023-03-16T20:45:46.698Z,51.69
2023-03-16T20:50:48.263Z,52.09
2023-03-16T20:55:54.436Z,52.19
2023-03-16T21:01:00.965Z,52.25
2023-03-16T21:06:02.272Z,52.46
2023-03-16T21:11:03.782Z,52.31
2023-03-16T21:16:05.530Z,52.69
2023-03-16T21:21:13.331Z,52.70
2023-03-16T21:26:21.051Z,52.90
2023-03-16T21:31:22.962Z,53.19
2023-03-16T21:36:26.520Z,53.12
2023-03-16T21:41:28.239Z,52.84
2023-03-16T21:46:29.798Z,53.59
2023-03-16T21:51:31.917Z,53.42
2023-03-16T21:56:33.326Z,53.58
2023-03-16T22:01:40.863Z,53.54
2023-03-16T22:06:46.359Z,53.63
2023-03-16T22:11:48.242Z,53.79
2023-03-16T22:16:49.606Z,53.68
2023-03-16T22:21:51.837Z,54.04
2023-03-16T22:26:54.187Z,54.19
2023-03-16T22:32:04.068Z,54.17
2023-03-16T22:37:05.647Z,54.11
2023-03-16T22:42:18.912Z,53.89
2023-03-16T22:47:22.509Z,54.31
2023-03-16T22:52:29.647Z,54.10
2023-03-16T22:57:31.969Z,54.63
2023-03-16T23:02:33.350Z,53.95
2023-03-16T23:07:34.715Z,54.38
2023-03-16T23:12:36.056Z,54.46
2023-03-16T23:17:37.481Z,54.51
2023-03-16T23:22:40.776Z,54.34
2023-03-16T23:27:42.472Z,54.55
2023-03-16T23:32:44.833Z,54.50
2023-03-16T23:37:46.945Z,54.25
2023-03-16T23:42:48.993Z,54.60
2023-03-16T23:47:53.047Z,54.51
2023-03-16T23:52:55.222Z,54.17
2023-03-16T23:57:56.733Z,54.40
